Time;durP1;ratioP1;P1;durP2;ratioP2;P2;SDS_P1;SDS_P2;PMS_P1;PMS_P2;Temp;Humidity;BMP_temperature;BMP_pressure;BME280_temperature;BME280_humidity;BME280_pressure;Samples;Min_cycle;Max_cycle;Signal;HPM_P1;HPM_P2
2022/08/23 00:01:29;;;;;;;15.02;12.00;;;;;;;24.96;86.25;99699.72;4950232;28;20019;-73
2022/08/23 00:03:59;;;;;;;16.17;12.20;;;;;;;25.02;86.38;99706.56;4951430;28;20031;-73
2022/08/23 00:06:26;;;;;;;13.80;12.40;;;;;;;24.78;85.83;99669.53;4950983;28;20081;-72
2022/08/23 00:08:52;;;;;;;12.73;11.43;;;;;;;24.96;86.38;99709.41;4933703;28;20051;-72
2022/08/23 00:11:41;;;;;;;12.68;11.07;;;;;;;24.78;87.00;99682.72;4951597;28;20461;-72
2022/08/23 00:14:23;;;;;;;15.75;12.10;;;;;;;24.92;86.83;99698.09;4963905;28;20035;-71
2022/08/23 00:16:50;;;;;;;16.58;12.55;;;;;;;24.89;87.30;99695.56;4950683;28;20035;-73
2022/08/23 00:19:18;;;;;;;17.58;12.85;;;;;;;24.92;87.27;99699.88;5016532;28;20027;-73
2022/08/23 00:21:45;;;;;;;16.10;12.70;;;;;;;24.74;87.32;99667.94;4965717;28;20768;-74
2022/08/23 00:24:13;;;;;;;15.88;12.82;;;;;;;24.84;86.84;99701.00;4954618;28;20027;-74
2022/08/23 00:26:53;;;;;;;16.92;12.27;;;;;;;24.60;87.20;99668.38;4951745;28;20515;-72
2022/08/23 00:29:20;;;;;;;16.75;13.18;;;;;;;24.71;87.96;99704.97;4950725;28;20022;-73
2022/08/23 00:31:46;;;;;;;16.00;12.73;;;;;;;24.41;88.80;99664.63;4950886;28;20122;-72
2022/08/23 00:34:12;;;;;;;16.17;13.00;;;;;;;24.42;89.98;99688.31;4950517;28;20028;-74
2022/08/23 00:36:38;;;;;;;15.07;13.48;;;;;;;24.44;89.99;99694.41;4933906;28;20033;-74
2022/08/23 00:39:04;;;;;;;17.77;13.18;;;;;;;24.36;90.72;99689.38;4982165;28;20027;-71
2022/08/23 00:41:32;;;;;;;17.55;12.80;;;;;;;24.44;90.10;99686.50;4970609;28;20066;-70
2022/08/23 00:49:44;;;;;;;18.23;12.93;;;;;;;24.06;90.40;99691.22;4970454;28;20070;-73
2022/08/23 00:52:23;;;;;;;15.40;11.82;;;;;;;23.88;91.54;99692.63;4969910;28;20053;-73
2022/08/23 00:54:51;;;;;;;17.07;12.23;;;;;;;23.85;92.15;99693.59;4970196;28;20110;-73
2022/08/23 00:57:18;;;;;;;13.48;11.88;;;;;;;23.77;91.98;99690.31;4970171;28;20041;-74
2022/08/23 00:59:45;;;;;;;15.00;12.18;;;;;;;23.59;92.57;99695.22;4970119;28;20037;-74
2022/08/23 01:02:11;;;;;;;11.43;10.13;;;;;;;23.54;92.71;99699.75;4969798;28;20405;-74
2022/08/23 01:04:41;;;;;;;13.40;10.80;;;;;;;23.47;92.40;99705.25;4970092;28;20041;-73
2022/08/23 01:07:37;;;;;;;11.57;10.25;;;;;;;23.27;93.20;99704.03;4970048;28;20046;-74
2022/08/23 01:10:08;;;;;;;12.15;9.90;;;;;;;23.17;93.41;99698.16;4969367;28;20023;-73
2022/08/23 01:12:45;;;;;;;12.40;10.05;;;;;;;23.02;93.70;99690.66;5017932;28;20080;-73
2022/08/23 01:15:27;;;;;;;12.18;9.90;;;;;;;22.83;95.36;99687.63;4966491;28;20043;-73
2022/08/23 01:18:03;;;;;;;10.88;9.75;;;;;;;22.87;94.94;99694.56;4949793;28;20023;-72
2022/08/23 01:20:37;;;;;;;11.43;10.10;;;;;;;22.80;95.07;99687.72;4949801;28;20106;-72
2022/08/23 01:23:15;;;;;;;12.18;10.88;;;;;;;22.77;96.34;99686.91;4949840;28;20512;-72
2022/08/23 01:25:41;;;;;;;13.20;11.75;;;;;;;22.78;97.25;99696.53;5015689;28;20492;-71
2022/08/23 01:28:06;;;;;;;17.38;13.48;;;;;;;22.82;98.39;99691.16;4949818;28;20055;-71
2022/08/23 01:30:33;;;;;;;15.90;13.90;;;;;;;22.80;98.99;99695.63;4949449;28;20024;-74
2022/08/23 01:33:02;;;;;;;15.02;13.50;;;;;;;22.81;98.80;99698.22;4953664;28;20496;-73
2022/08/23 01:35:52;;;;;;;;;;;;;;;22.77;98.74;99701.84;4969712;28;20080;-71
2022/08/23 01:38:18;;;;;;;15.80;12.18;;;;;;;22.57;97.83;99678.66;4988920;28;19913;-72
2022/08/23 01:40:44;;;;;;;13.18;11.77;;;;;;;22.75;97.80;99709.78;4989208;28;20128;-73
2022/08/23 01:43:12;;;;;;;13.75;11.25;;;;;;;22.67;97.86;99719.63;4988854;28;20129;-73
2022/08/23 01:45:40;;;;;;;13.00;11.45;;;;;;;22.62;97.73;99719.72;4988347;28;20076;-72
2022/08/23 01:48:05;;;;;;;16.73;12.43;;;;;;;22.68;97.52;99720.47;4988897;28;20585;-69
2022/08/23 01:50:31;;;;;;;12.85;11.55;;;;;;;22.35;98.63;99730.88;4988750;28;20054;-70
2022/08/23 01:52:57;;;;;;;12.27;10.88;;;;;;;22.24;98.57;99725.88;4988761;28;20540;-73
2022/08/23 01:55:24;;;;;;;11.75;10.32;;;;;;;22.29;97.81;99729.25;4988810;28;20058;-73
2022/08/23 01:57:53;;;;;;;13.02;10.93;;;;;;;22.26;97.75;99717.03;4988683;28;20026;-72
2022/08/23 02:00:22;;;;;;;14.50;10.88;;;;;;;22.14;98.54;99720.84;4987785;28;20033;-73
2022/08/23 02:02:47;;;;;;;12.90;10.93;;;;;;;22.23;97.78;99724.13;4988607;28;20034;-75
2022/08/23 02:05:14;;;;;;;15.80;10.60;;;;;;;22.11;98.31;99718.25;4988577;28;20045;-71
2022/08/23 02:07:39;;;;;;;13.73;11.15;;;;;;;22.09;98.63;99719.19;4988938;28;20038;-70
2022/08/23 02:10:07;;;;;;;16.88;11.85;;;;;;;22.21;98.32;99723.31;4988656;28;20085;-70
2022/08/23 02:12:32;;;;;;;15.35;12.45;;;;;;;22.21;97.49;99715.44;4988502;28;20066;-70
2022/08/23 02:14:58;;;;;;;14.43;12.88;;;;;;;22.37;96.91;99724.72;4980682;28;20078;-72
2022/08/23 02:17:24;;;;;;;16.70;13.93;;;;;;;22.37;96.32;99723.81;4968738;28;20039;-71
2022/08/23 02:19:49;;;;;;;20.25;13.75;;;;;;;22.34;96.08;99730.00;4968534;28;20054;-73
2022/08/23 02:22:15;;;;;;;14.95;13.40;;;;;;;22.06;97.67;99724.53;4968274;28;20031;-73
2022/08/23 02:24:44;;;;;;;17.40;14.35;;;;;;;21.87;99.10;99724.94;4968835;28;20094;-72
2022/08/23 02:27:14;;;;;;;18.50;14.68;;;;;;;21.94;99.41;99731.81;4968258;28;20481;-72
2022/08/23 02:29:40;;;;;;;17.17;15.25;;;;;;;21.78;99.09;99698.84;4968694;28;20092;-73
2022/08/23 02:32:07;;;;;;;16.92;14.88;;;;;;;21.94;99.42;99723.91;4968653;28;20037;-72
2022/08/23 02:34:32;;;;;;;19.60;14.88;;;;;;;21.92;99.42;99728.34;4968466;28;20477;-73
2022/08/23 02:36:58;;;;;;;16.80;15.00;;;;;;;21.97;98.96;99723.84;4951441;28;20029;-73
2022/08/23 02:39:23;;;;;;;20.33;16.35;;;;;;;21.91;99.66;99729.22;4968420;28;20071;-73
2022/08/23 02:41:50;;;;;;;17.05;15.07;;;;;;;22.05;98.75;99718.41;4968659;28;20114;-72
2022/08/23 02:44:17;;;;;;;20.02;14.98;;;;;;;22.04;98.35;99719.28;4968293;28;20537;-72
2022/08/23 02:46:44;;;;;;;17.65;15.88;;;;;;;21.85;98.99;99689.09;4968677;28;20041;-74
2022/08/23 02:49:10;;;;;;;17.50;15.70;;;;;;;21.79;100.00;99727.75;5104223;22;20018;-74
2022/08/23 02:51:36;;;;;;;20.08;16.00;;;;;;;21.71;100.00;99723.50;5067787;28;20039;-73
2022/08/23 02:54:03;;;;;;;17.75;15.88;;;;;;;21.69;100.00;99734.06;5085569;28;20063;-71
2022/08/23 02:56:29;;;;;;;27.88;16.55;;;;;;;21.46;100.00;99711.72;5055644;28;20037;-75
2022/08/23 02:58:55;;;;;;;17.65;15.73;;;;;;;21.77;100.00;99747.03;5062038;28;20025;-73
2022/08/23 03:01:28;;;;;;;19.77;15.95;;;;;;;21.86;100.00;99743.34;5068004;28;20107;-70
2022/08/23 03:03:54;;;;;;;18.02;15.48;;;;;;;21.97;100.00;99741.38;5075733;28;20081;-70
2022/08/23 03:06:20;;;;;;;18.77;15.70;;;;;;;21.92;100.00;99743.22;5084122;28;20447;-71
2022/08/23 03:12:09;;;;;;;18.70;14.95;;;;;;;21.81;100.00;99746.09;5188696;22;20064;-72
2022/08/23 03:14:36;;;;;;;17.25;15.55;;;;;;;21.46;100.00;99718.75;5049896;28;20063;-72
2022/08/23 03:17:06;;;;;;;18.33;14.98;;;;;;;21.57;100.00;99736.94;5040704;28;20029;-72
2022/08/23 03:19:32;;;;;;;20.45;15.98;;;;;;;21.65;100.00;99762.16;5032844;28;20030;-73
2022/08/23 03:21:58;;;;;;;16.77;14.88;;;;;;;21.88;100.00;99768.72;5055213;28;20028;-73
2022/08/23 03:24:24;;;;;;;20.92;15.52;;;;;;;21.80;100.00;99739.94;5067010;28;20049;-70
2022/08/23 03:26:49;;;;;;;18.48;15.15;;;;;;;21.97;100.00;99776.41;5058503;28;20029;-72
2022/08/23 03:29:14;;;;;;;21.42;15.60;;;;;;;21.79;100.00;99740.88;5069102;28;20032;-70
2022/08/23 03:31:40;;;;;;;17.35;15.07;;;;;;;22.02;99.47;99765.78;5065014;28;20041;-73
2022/08/23 03:34:06;;;;;;;20.60;15.05;;;;;;;21.98;99.77;99780.75;5052760;28;20717;-73
2022/08/23 03:36:32;;;;;;;25.23;15.43;;;;;;;21.77;100.00;99776.81;5071689;28;20033;-72
2022/08/23 03:38:58;;;;;;;16.85;15.00;;;;;;;21.89;100.00;99782.72;5073103;28;20414;-73
2022/08/23 03:41:25;;;;;;;18.92;14.70;;;;;;;21.98;100.00;99786.00;5072317;28;20592;-73
2022/08/23 03:43:51;;;;;;;20.77;14.55;;;;;;;22.03;99.25;99783.31;5055354;28;20398;-73
2022/08/23 03:46:23;;;;;;;17.90;14.63;;;;;;;22.05;99.39;99791.16;5072901;28;20520;-74
2022/08/23 03:48:54;;;;;;;16.25;14.55;;;;;;;22.06;99.52;99788.47;5072632;28;20433;-73
2022/08/23 03:51:21;;;;;;;18.75;14.65;;;;;;;21.77;100.00;99766.31;5059048;28;20039;-74
2022/08/23 03:53:48;;;;;;;22.40;14.18;;;;;;;21.78;100.00;99788.19;5073179;28;20052;-73
2022/08/23 03:56:29;;;;;;;17.33;13.70;;;;;;;21.60;100.00;99766.63;5072819;28;20522;-73
2022/08/23 03:58:56;;;;;;;17.98;13.40;;;;;;;21.89;100.00;99795.84;5072536;28;20112;-69
2022/08/23 04:01:22;;;;;;;22.17;14.20;;;;;;;22.00;99.29;99807.00;5072825;28;20037;-73
2022/08/23 04:03:48;;;;;;;16.23;13.88;;;;;;;22.13;98.86;99803.22;5072785;28;20414;-75
2022/08/23 04:06:15;;;;;;;17.50;14.48;;;;;;;22.06;98.46;99772.69;5067936;28;20029;-73
2022/08/23 04:08:42;;;;;;;20.63;15.05;;;;;;;22.34;98.00;99802.78;5045150;28;20025;-70
2022/08/23 04:11:08;;;;;;;17.70;14.68;;;;;;;22.46;96.91;99799.91;5056832;28;20490;-70
2022/08/23 04:13:35;;;;;;;17.17;14.73;;;;;;;22.62;97.42;99801.28;5067371;28;20043;-72
2022/08/23 04:16:02;;;;;;;17.77;14.60;;;;;;;22.69;96.58;99803.75;5053063;28;20044;-73
2022/08/23 04:18:30;;;;;;;19.20;15.63;;;;;;;22.80;95.80;99796.47;5072430;28;20103;-71
2022/08/23 04:20:57;;;;;;;16.55;14.75;;;;;;;22.79;96.18;99805.25;5072192;28;20137;-70
2022/08/23 04:23:24;;;;;;;16.90;14.45;;;;;;;22.67;96.41;99793.28;5071923;28;20025;-71
2022/08/23 04:25:49;;;;;;;15.80;14.07;;;;;;;22.66;97.85;99804.72;5057731;28;20056;-70
2022/08/23 04:28:15;;;;;;;17.23;15.00;;;;;;;22.59;97.64;99817.16;5071845;28;20056;-73
2022/08/23 04:30:41;;;;;;;16.70;14.77;;;;;;;22.36;98.43;99787.84;5071864;28;20020;-74
2022/08/23 04:33:07;;;;;;;18.13;15.02;;;;;;;22.66;98.24;99824.91;5071929;28;20064;-70
2022/08/23 04:35:33;;;;;;;16.80;15.18;;;;;;;22.75;97.92;99822.94;5072102;28;20067;-70
2022/08/23 04:37:58;;;;;;;17.40;15.57;;;;;;;22.79;98.09;99821.06;5071376;28;20498;-76
2022/08/23 04:43:08;;;;;;;17.17;15.45;;;;;;;22.73;98.11;99823.84;5071570;28;20031;-70
2022/08/23 04:45:37;;;;;;;17.67;15.93;;;;;;;22.56;97.93;99800.56;5071728;28;20028;-69
2022/08/23 04:48:03;;;;;;;20.38;17.38;;;;;;;22.58;100.00;99841.72;5071496;28;20021;-69
2022/08/23 04:50:28;;;;;;;18.27;16.25;;;;;;;22.67;100.00;99838.00;5071582;28;20033;-72
2022/08/23 04:52:54;;;;;;;20.50;17.70;;;;;;;22.52;100.00;99830.44;5071603;28;20032;-73
2022/08/23 04:55:19;;;;;;;24.27;18.00;;;;;;;22.51;100.00;99841.91;5070818;28;20036;-71
2022/08/23 04:57:45;;;;;;;21.70;17.23;;;;;;;22.42;100.00;99807.00;5071496;28;20033;-73
2022/08/23 05:00:12;;;;;;;21.77;15.88;;;;;;;22.58;99.39;99807.53;5071299;28;20509;-70
2022/08/23 05:02:38;;;;;;;21.85;18.25;;;;;;;;;;5071020;28;20099;-70
2022/08/23 05:05:05;;;;;;;18.75;16.73;;;;;;;22.95;98.61;99847.88;5071178;28;20075;-74
2022/08/23 05:07:30;;;;;;;22.85;17.67;;;;;;;22.82;98.85;99813.09;5071403;28;20098;-72
2022/08/23 05:09:56;;;;;;;20.38;18.23;;;;;;;22.78;100.00;99841.25;5033250;28;20479;-69
2022/08/23 05:12:22;;;;;;;21.67;18.92;;;;;;;22.80;100.00;99825.41;5035323;28;20076;-70
2022/08/23 05:14:47;;;;;;;19.30;16.67;;;;;;;23.04;99.21;99860.84;5038560;28;20029;-70
2022/08/23 05:17:12;;;;;;;20.05;17.65;;;;;;;23.15;98.28;99850.00;5043900;28;20423;-75
2022/08/23 05:19:38;;;;;;;19.45;17.52;;;;;;;23.26;98.03;99857.69;5040240;28;20033;-73
2022/08/23 05:22:03;;;;;;;20.40;18.30;;;;;;;23.16;97.58;99820.19;5044769;28;20056;-72
2022/08/23 05:24:29;;;;;;;20.05;17.95;;;;;;;23.29;97.12;99828.66;5031285;28;20100;-71
2022/08/23 05:26:54;;;;;;;22.20;18.02;;;;;;;23.51;97.10;99836.84;5049306;28;20024;-70
2022/08/23 05:29:20;;;;;;;23.17;19.17;;;;;;;23.61;96.56;99850.63;5055591;28;20046;-73
2022/08/23 05:31:46;;;;;;;22.75;17.98;;;;;;;23.51;96.47;99835.97;5068225;28;20036;-73
2022/08/23 05:34:11;;;;;;;24.48;18.95;;;;;;;23.62;97.01;99849.72;5070682;28;20039;-71
2022/08/23 05:36:37;;;;;;;23.02;18.52;;;;;;;23.57;97.85;99849.00;5045158;28;20059;-73
2022/08/23 05:39:04;;;;;;;20.15;18.08;;;;;;;23.56;97.32;99837.59;4998118;28;20119;-70
2022/08/23 05:41:30;;;;;;;20.52;18.30;;;;;;;23.75;97.08;99843.22;5042543;28;20032;-73
2022/08/23 05:43:55;;;;;;;20.15;17.90;;;;;;;23.82;95.93;99843.91;5043736;28;20029;-72
2022/08/23 05:46:21;;;;;;;21.67;18.15;;;;;;;23.70;95.54;99831.94;5050136;28;20108;-69
2022/08/23 05:48:49;;;;;;;20.52;18.33;;;;;;;23.81;96.01;99843.94;5050126;28;20463;-72
2022/08/23 05:51:18;;;;;;;22.05;19.75;;;;;;;23.85;96.86;99853.50;5049969;28;20031;-70
2022/08/23 05:53:45;;;;;;;24.80;21.33;;;;;;;23.71;97.51;99854.75;5011815;28;20041;-71
2022/08/23 05:56:27;;;;;;;25.75;21.02;;;;;;;23.88;98.53;99851.63;5042087;28;20029;-73
2022/08/23 05:58:55;;;;;;;23.35;20.13;;;;;;;23.67;97.18;99826.75;5049750;28;20463;-70
2022/08/23 06:01:21;;;;;;;25.13;22.20;;;;;;;23.96;98.06;99859.38;5033416;28;20483;-71
2022/08/23 06:03:48;;;;;;;24.27;21.40;;;;;;;24.08;97.69;99866.06;5047695;28;20029;-72
2022/08/23 06:06:14;;;;;;;28.13;22.67;;;;;;;24.20;97.23;99859.56;5051047;28;20056;-70
2022/08/23 06:08:43;;;;;;;25.77;22.35;;;;;;;23.83;98.38;99827.19;5047804;28;20372;-72
2022/08/23 06:11:19;;;;;;;27.57;21.87;;;;;;;23.79;100.00;99856.31;5026271;28;20125;-71
2022/08/23 06:13:52;;;;;;;25.42;19.55;;;;;;;23.86;100.00;99852.59;5029579;28;20040;-71
2022/08/23 06:16:21;;;;;;;23.17;20.75;;;;;;;23.89;98.03;99821.75;5029066;28;20025;-71
2022/08/23 06:18:47;;;;;;;25.02;19.85;;;;;;;24.01;98.10;99852.22;5029273;28;20533;-74
2022/08/23 06:21:17;;;;;;;23.52;19.90;;;;;;;24.13;98.39;99856.25;5045956;28;20398;-69
2022/08/23 06:23:46;;;;;;;24.00;20.40;;;;;;;24.39;96.87;99860.75;5046532;28;20079;-72
2022/08/23 06:26:16;;;;;;;25.67;20.67;;;;;;;24.43;95.37;99865.94;5042433;28;20055;-72
2022/08/23 06:28:42;;;;;;;;;;;;;;;24.57;95.92;99873.44;5049856;28;20037;-71
2022/08/23 06:31:08;;;;;;;22.35;18.80;;;;;;;24.61;95.45;99868.03;5041628;28;20374;-72
2022/08/23 06:33:34;;;;;;;24.67;19.45;;;;;;;24.79;94.30;99866.63;5045233;28;20068;-72
2022/08/23 06:36:03;;;;;;;21.13;18.88;;;;;;;24.93;93.46;99871.44;5047475;28;20108;-69
2022/08/23 06:38:29;;;;;;;23.20;18.73;;;;;;;24.90;92.57;99841.63;5028236;28;20095;-72
2022/08/23 06:41:02;;;;;;;24.65;19.58;;;;;;;25.07;92.55;99875.44;5045491;28;20494;-71
2022/08/23 06:43:28;;;;;;;25.00;20.60;;;;;;;25.17;91.77;99876.84;5047278;28;20033;-72
2022/08/23 06:45:54;;;;;;;24.52;20.23;;;;;;;24.98;93.62;99874.81;5051320;28;20029;-71
2022/08/23 06:48:20;;;;;;;22.77;20.33;;;;;;;24.63;94.67;99876.75;5063052;28;20029;-71
2022/08/23 06:50:45;;;;;;;22.27;19.95;;;;;;;24.44;95.90;99875.59;5069522;28;20450;-71
2022/08/23 06:53:11;;;;;;;24.55;21.52;;;;;;;24.37;96.62;99859.06;5069382;28;20031;-71
2022/08/23 06:55:37;;;;;;;21.63;19.27;;;;;;;24.71;94.44;99873.91;5069529;28;20021;-72
2022/08/23 06:58:03;;;;;;;20.83;18.50;;;;;;;24.98;93.12;99887.16;5059716;28;20051;-71
2022/08/23 07:00:28;;;;;;;20.75;18.48;;;;;;;25.18;91.76;99897.94;5031647;28;20564;-72
2022/08/23 07:02:54;;;;;;;22.70;18.98;;;;;;;25.33;90.55;99890.41;5069489;28;20017;-72
2022/08/23 07:05:20;;;;;;;21.10;18.85;;;;;;;25.53;90.26;99897.69;5069435;28;20025;-72
2022/08/23 07:07:45;;;;;;;20.65;18.45;;;;;;;25.59;89.33;99897.47;5038859;28;20020;-72
2022/08/23 07:10:11;;;;;;;22.92;19.85;;;;;;;25.52;89.30;99898.59;5073882;28;20086;-69
2022/08/23 07:12:40;;;;;;;21.13;18.92;;;;;;;25.63;89.18;99892.94;5072495;28;20048;-72
2022/08/23 07:15:07;;;;;;;21.88;19.50;;;;;;;25.82;87.68;99901.09;5073143;28;20032;-72
2022/08/23 07:17:32;;;;;;;21.60;19.40;;;;;;;25.93;87.38;99890.13;5063404;28;20501;-72
2022/08/23 07:19:58;;;;;;;20.25;17.67;;;;;;;25.86;87.87;99897.44;5057070;28;20021;-72
2022/08/23 07:22:23;;;;;;;20.40;18.20;;;;;;;26.00;86.55;99891.66;5073312;28;20044;-72
2022/08/23 07:24:49;;;;;;;21.08;18.88;;;;;;;26.02;85.86;99886.28;5064392;28;20029;-73
2022/08/23 07:27:14;;;;;;;22.48;18.20;;;;;;;26.05;86.39;99892.34;5066828;28;20033;-72
2022/08/23 07:29:41;;;;;;;19.83;17.75;;;;;;;26.03;87.27;99882.75;5041603;28;20032;-73
2022/08/23 07:32:07;;;;;;;19.90;17.85;;;;;;;26.37;85.50;99914.16;5072929;28;20024;-76
2022/08/23 07:34:33;;;;;;;20.98;19.00;;;;;;;26.45;84.75;99912.03;5072732;28;20098;-73
2022/08/23 07:37:00;;;;;;;23.05;19.33;;;;;;;26.54;83.83;99921.41;5072884;28;20027;-70
2022/08/23 07:39:43;;;;;;;23.02;19.98;;;;;;;26.59;83.46;99924.78;5029823;28;20109;-71
2022/08/23 07:42:09;;;;;;;23.27;20.33;;;;;;;26.42;85.33;99906.88;5030270;28;20034;-72
2022/08/23 07:44:34;;;;;;;23.42;20.92;;;;;;;26.59;85.64;99927.44;5030141;28;20034;-72
2022/08/23 07:47:00;;;;;;;21.88;19.70;;;;;;;26.58;84.17;99912.47;5030173;28;20072;-69
2022/08/23 07:49:26;;;;;;;19.33;17.27;;;;;;;26.62;85.22;99903.47;5030079;28;20431;-73
2022/08/23 07:51:54;;;;;;;18.27;16.30;;;;;;;26.71;84.91;99898.75;5013722;28;20030;-71
2022/08/23 07:54:21;;;;;;;18.92;16.90;;;;;;;26.89;83.30;99907.78;5030218;28;20124;-71
2022/08/23 07:56:46;;;;;;;19.05;15.15;;;;;;;27.01;80.38;99901.13;5030333;28;20037;-74
2022/08/23 07:59:12;;;;;;;17.65;12.93;;;;;;;27.04;81.17;99885.09;5030551;28;20037;-72
2022/08/23 08:01:42;;;;;;;16.45;13.07;;;;;;;27.31;80.22;99911.41;5013679;28;20041;-71
2022/08/23 08:04:07;;;;;;;14.45;12.13;;;;;;;27.50;79.16;99906.22;5012747;28;20041;-71
2022/08/23 08:06:37;;;;;;;13.77;12.35;;;;;;;27.57;79.53;99905.03;5026909;28;20038;-72
2022/08/23 08:09:04;;;;;;;14.27;11.13;;;;;;;27.54;78.98;99900.72;5010404;28;20144;-69
2022/08/23 08:11:32;;;;;;;13.50;11.77;;;;;;;27.71;77.19;99904.41;5044710;28;20045;-69
2022/08/23 08:14:03;;;;;;;14.13;12.25;;;;;;;27.82;74.83;99907.47;5052586;28;20037;-72
2022/08/23 08:16:34;;;;;;;17.95;13.73;;;;;;;27.96;78.34;99901.53;5052361;28;20406;-71
2022/08/23 08:19:01;;;;;;;14.50;13.00;;;;;;;27.82;76.42;99875.63;5051952;28;20029;-71
2022/08/23 08:21:27;;;;;;;15.93;12.73;;;;;;;28.03;73.28;99904.81;5052757;28;20025;-71
2022/08/23 08:23:53;;;;;;;14.32;12.93;;;;;;;28.15;73.33;99908.72;5052446;28;20040;-73
2022/08/23 08:26:19;;;;;;;14.63;13.23;;;;;;;28.21;71.45;99909.31;5052436;28;20035;-71
2022/08/23 08:28:45;;;;;;;15.93;12.32;;;;;;;28.07;71.50;99879.88;5052065;28;20063;-71
2022/08/23 08:31:11;;;;;;;16.65;12.75;;;;;;;28.33;70.06;99901.72;5052293;28;20025;-71
2022/08/23 08:33:37;;;;;;;13.35;12.05;;;;;;;28.27;69.28;99896.69;5052504;28;20025;-72
2022/08/23 08:36:03;;;;;;;13.77;12.45;;;;;;;28.07;70.49;99895.81;5052376;28;20033;-69
2022/08/23 08:38:29;;;;;;;15.05;11.68;;;;;;;28.17;70.73;99893.59;5052426;28;20079;-71
2022/08/23 08:41:10;;;;;;;15.00;12.23;;;;;;;28.27;72.98;99894.03;5052236;28;20037;-72
2022/08/23 08:43:54;;;;;;;16.02;12.30;;;;;;;28.34;70.70;99887.53;5052022;28;20052;-73
2022/08/23 08:46:25;;;;;;;14.25;12.85;;;;;;;28.52;69.33;99897.25;5049618;28;20037;-71
2022/08/23 08:48:57;;;;;;;15.90;13.40;;;;;;;28.50;70.20;99866.41;5051765;28;20017;-72
2022/08/23 08:51:41;;;;;;;28.27;14.57;;;;;;;28.69;70.48;99899.16;5017411;28;20068;-69
2022/08/23 08:54:12;;;;;;;14.27;12.85;;;;;;;28.42;70.88;99877.38;5050677;28;20063;-73
2022/08/23 08:56:39;;;;;;;14.48;12.18;;;;;;;28.56;71.04;99882.03;5048989;28;20025;-70
2022/08/23 08:59:09;;;;;;;14.85;12.70;;;;;;;28.52;70.14;99875.16;5051361;28;20035;-73
2022/08/23 09:01:37;;;;;;;13.80;11.85;;;;;;;28.69;70.85;99901.81;5052060;28;20079;-74
2022/08/23 09:04:05;;;;;;;13.18;11.77;;;;;;;28.70;69.09;99900.03;5037553;28;20467;-72
2022/08/23 09:06:42;;;;;;;13.57;11.77;;;;;;;28.71;68.50;99897.28;5033412;28;20093;-68
2022/08/23 09:09:34;;;;;;;15.25;12.13;;;;;;;28.71;69.96;99897.28;5039620;28;20045;-73
2022/08/23 09:12:33;;;;;;;17.63;12.25;;;;;;;28.71;66.68;99888.44;5030993;28;20056;-70
2022/08/23 09:15:14;;;;;;;13.73;11.48;;;;;;;28.83;66.46;99894.97;5030851;28;20029;-71
2022/08/23 09:17:48;;;;;;;14.70;11.43;;;;;;;28.88;67.09;99899.13;5042817;28;20741;-76
2022/08/23 09:20:15;;;;;;;18.35;12.13;;;;;;;28.83;67.94;99902.94;5034647;28;20056;-70
2022/08/23 09:22:45;;;;;;;13.40;11.02;;;;;;;28.63;66.84;99904.72;5034307;28;20072;-70
2022/08/23 09:25:11;;;;;;;;;;;;;;;28.68;66.65;99899.22;5030562;28;20502;-71
2022/08/23 09:27:40;;;;;;;13.90;12.43;;;;;;;28.70;66.90;99895.56;5047789;28;20432;-72
2022/08/23 09:30:07;;;;;;;16.58;12.40;;;;;;;28.66;65.84;99882.47;5049833;28;20028;-73
2022/08/23 09:32:38;;;;;;;17.98;13.75;;;;;;;28.89;67.88;99902.66;5031182;28;20033;-72
2022/08/23 09:35:14;;;;;;;15.43;13.35;;;;;;;28.91;69.06;99889.28;5030054;28;20029;-71
2022/08/23 09:37:56;;;;;;;18.13;12.80;;;;;;;28.80;67.03;99868.53;5032142;28;20472;-73
2022/08/23 09:40:33;;;;;;;15.20;12.77;;;;;;;28.97;66.48;99895.16;5027231;28;20522;-69
2022/08/23 09:43:08;;;;;;;14.57;13.00;;;;;;;28.94;65.58;99865.25;5027506;28;20526;-74
2022/08/23 09:45:37;;;;;;;14.70;13.20;;;;;;;29.17;65.70;99882.69;5041512;28;20087;-76
2022/08/23 09:48:05;;;;;;;16.30;12.82;;;;;;;29.32;64.78;99879.31;5035194;28;20052;-79
2022/08/23 09:50:41;;;;;;;14.48;12.98;;;;;;;29.40;65.10;99883.34;5057243;28;20072;-78
2022/08/23 09:53:11;;;;;;;16.20;12.20;;;;;;;29.44;63.72;99888.44;5041019;28;20114;-78
2022/08/23 09:56:03;;;;;;;16.10;13.15;;;;;;;29.63;63.73;99888.34;5041766;28;20041;-71
2022/08/23 09:58:40;;;;;;;12.95;11.68;;;;;;;29.63;61.17;99879.50;5025600;28;20044;-71
2022/08/23 10:01:34;;;;;;;15.85;13.82;;;;;;;29.64;63.39;99878.56;5028753;28;20037;-71
2022/08/23 10:04:13;;;;;;;13.57;12.15;;;;;;;29.66;60.60;99879.38;4968442;28;20118;-68
2022/08/23 10:06:42;;;;;;;15.82;13.82;;;;;;;29.63;59.31;99883.03;4968814;28;20043;-71
2022/08/23 10:09:08;;;;;;;13.85;12.40;;;;;;;29.48;59.56;99879.34;4968812;28;20472;-71
2022/08/23 10:11:40;;;;;;;13.45;11.93;;;;;;;29.41;60.36;99880.63;4941175;29;20508;-74
2022/08/23 10:14:05;;;;;;;13.57;12.30;;;;;;;29.40;60.47;99878.03;4948926;29;20449;-71
2022/08/23 10:16:46;;;;;;;18.35;13.45;;;;;;;29.37;61.30;99887.91;4948928;29;20115;-71
2022/08/23 10:19:30;;;;;;;17.13;12.93;;;;;;;29.37;60.43;99881.69;4948920;28;20616;-69
2022/08/23 10:22:37;;;;;;;15.27;13.35;;;;;;;28.90;61.37;99880.47;4933088;29;20055;-72
2022/08/23 10:25:26;;;;;;;16.05;14.32;;;;;;;28.98;63.60;99872.13;4929762;29;20051;-72
2022/08/23 10:30:56;;;;;;;15.43;13.80;;;;;;;29.12;61.34;99877.59;4949267;28;20054;-73
2022/08/23 10:33:56;;;;;;;14.93;13.25;;;;;;;29.07;60.83;99876.13;4948934;29;20130;-71
2022/08/23 10:36:33;;;;;;;14.85;12.77;;;;;;;29.06;60.59;99875.25;4948920;29;20039;-72
2022/08/23 10:39:09;;;;;;;13.55;12.27;;;;;;;29.12;60.90;99869.59;4948769;29;20034;-72
2022/08/23 10:41:54;;;;;;;14.02;12.60;;;;;;;29.18;60.88;99876.44;4999308;28;20526;-71
2022/08/23 10:44:42;;;;;;;12.60;11.30;;;;;;;29.24;59.66;99868.16;5051468;28;20033;-72
2022/08/23 10:47:13;;;;;;;14.02;12.63;;;;;;;29.41;60.96;99864.69;5046095;28;20033;-71
2022/08/23 10:49:41;;;;;;;15.70;13.40;;;;;;;29.54;60.63;99859.56;5043541;28;20055;-71
2022/08/23 10:52:11;;;;;;;16.30;13.73;;;;;;;29.83;61.60;99865.16;5034737;28;20082;-71
2022/08/23 10:54:45;;;;;;;17.38;14.93;;;;;;;29.75;61.40;99860.25;5051168;28;20422;-71
2022/08/23 10:57:16;;;;;;;17.00;13.27;;;;;;;29.84;61.31;99857.09;5032812;28;20592;-70
2022/08/23 10:59:45;;;;;;;14.82;13.02;;;;;;;29.91;58.69;99851.47;5019115;28;20510;-71
2022/08/23 11:02:28;;;;;;;;;;;;;;;30.12;57.86;99842.34;5050928;28;20044;-72
2022/08/23 11:05:05;;;;;;;13.40;11.93;;;;;;;30.46;57.62;99840.47;5051357;28;20011;-71
2022/08/23 11:07:37;;;;;;;13.02;11.80;;;;;;;30.73;55.50;99839.00;5033063;28;20386;-69
2022/08/23 11:10:06;;;;;;;12.02;10.82;;;;;;;30.72;53.31;99811.50;5051217;28;20063;-72
2022/08/23 11:12:50;;;;;;;10.27;8.90;;;;;;;30.74;51.58;99790.94;5073123;28;20056;-71
2022/08/23 11:15:26;;;;;;;11.80;8.43;;;;;;;30.99;50.59;99834.81;5021104;28;20123;-70
2022/08/23 11:17:57;;;;;;;14.63;9.82;;;;;;;30.95;51.81;99844.81;5050567;28;20037;-71
2022/08/23 11:20:53;;;;;;;13.77;10.00;;;;;;;31.10;50.95;99848.41;4994665;28;20040;-68
2022/08/23 11:23:40;;;;;;;17.33;10.52;;;;;;;31.06;51.77;99822.00;4952319;28;20041;-73
2022/08/23 11:26:09;;;;;;;14.13;11.48;;;;;;;31.29;55.41;99834.00;4952118;29;20031;-69
2022/08/23 11:28:43;;;;;;;12.63;10.35;;;;;;;31.48;52.34;99843.56;5041365;28;20036;-69
2022/08/23 11:31:28;;;;;;;16.00;11.30;;;;;;;31.59;51.28;99843.75;5053833;28;20045;-69
2022/08/23 11:34:07;;;;;;;14.10;9.90;;;;;;;31.68;51.13;99829.91;5053526;28;20495;-69
2022/08/23 11:36:35;;;;;;;12.02;10.75;;;;;;;31.81;51.31;99831.81;5054171;28;20102;-70
2022/08/23 11:39:05;;;;;;;12.57;9.55;;;;;;;31.82;50.47;99825.53;5054146;28;20043;-71
2022/08/23 11:41:35;;;;;;;11.20;9.55;;;;;;;31.76;49.13;99816.06;5053929;28;20029;-69
2022/08/23 11:44:03;;;;;;;13.40;12.00;;;;;;;31.74;53.11;99815.31;5053598;28;20491;-69
2022/08/23 11:46:54;;;;;;;15.98;12.00;;;;;;;31.56;52.42;99806.59;5053675;28;20155;-72